sensor_id;sensor_type;location;lat;lon;timestamp;pressure;altitude;pressure_sealevel;temperature;humidity
64025;BME280;50266;57.446;26.936;2023-02-27T00:00:57;99575.39;;;-6.57;100.0
64025;BME280;50266;57.446;26.936;2023-02-27T00:01:57;99579.97;;;-6.57;100.0
64025;BME280;50266;57.446;26.936;2023-02-27T00:02:57;99584.22;;;-6.56;100.0
64025;BME280;50266;57.446;26.936;2023-02-27T00:03:57;99586.53;;;-6.57;100.0
64025;BME280;50266;57.446;26.936;2023-02-27T00:04:57;99587.87;;;-6.6;100.0
64025;BME280;50266;57.446;26.936;2023-02-27T00:05:57;99584.59;;;-6.59;100.0
64025;BME280;50266;57.446;26.936;2023-02-27T00:06:57;99594.33;;;-6.6;100.0
64025;BME280;50266;57.446;26.936;2023-02-27T00:07:57;99595.2;;;-6.59;100.0
64025;BME280;50266;57.446;26.936;2023-02-27T00:08:57;99590.41;;;-6.58;100.0
64025;BME280;50266;57.446;26.936;2023-02-27T00:09:57;99594.19;;;-6.57;100.0
64025;BME280;50266;57.446;26.936;2023-02-27T00:10:57;99598.87;;;-6.57;100.0
64025;BME280;50266;57.446;26.936;2023-02-27T00:11:57;99601.55;;;-6.6;100.0
64025;BME280;50266;57.446;26.936;2023-02-27T00:12:57;99603.59;;;-6.6;100.0
64025;BME280;50266;57.446;26.936;2023-02-27T00:13:57;99599.58;;;-6.55;100.0
64025;BME280;50266;57.446;26.936;2023-02-27T00:14:57;99601.83;;;-6.58;100.0
64025;BME280;50266;57.446;26.936;2023-02-27T00:15:57;99615.34;;;-6.59;100.0
64025;BME280;50266;57.446;26.936;2023-02-27T00:16:57;99613.51;;;-6.59;100.0
64025;BME280;50266;57.446;26.936;2023-02-27T00:17:57;99618.09;;;-6.57;100.0
64025;BME280;50266;57.446;26.936;2023-02-27T00:18:57;99617.55;;;-6.6;100.0
64025;BME280;50266;57.446;26.936;2023-02-27T00:19:57;99616.89;;;-6.61;100.0
64025;BME280;50266;57.446;26.936;2023-02-27T00:20:57;99616.52;;;-6.59;100.0
64025;BME280;50266;57.446;26.936;2023-02-27T00:21:57;99620.81;;;-6.63;100.0
64025;BME280;50266;57.446;26.936;2023-02-27T00:22:57;99620.16;;;-6.62;100.0
64025;BME280;50266;57.446;26.936;2023-02-27T00:23:57;99619.32;;;-6.6;100.0
64025;BME280;50266;57.446;26.936;2023-02-27T00:24:57;99622.45;;;-6.59;100.0
64025;BME280;50266;57.446;26.936;2023-02-27T00:25:57;99628.78;;;-6.62;100.0
64025;BME280;50266;57.446;26.936;2023-02-27T00:26:58;99634.71;;;-6.61;100.0
64025;BME280;50266;57.446;26.936;2023-02-27T00:27:58;99632.33;;;-6.63;100.0
64025;BME280;50266;57.446;26.936;2023-02-27T00:28:58;99639.3;;;-6.6;100.0
64025;BME280;50266;57.446;26.936;2023-02-27T00:29:58;99638.81;;;-6.65;100.0
64025;BME280;50266;57.446;26.936;2023-02-27T00:30:58;99639.11;;;-6.63;100.0
64025;BME280;50266;57.446;26.936;2023-02-27T00:31:58;99639.62;;;-6.59;100.0
64025;BME280;50266;57.446;26.936;2023-02-27T00:32:58;99639.17;;;-6.63;100.0
64025;BME280;50266;57.446;26.936;2023-02-27T00:33:58;99646.93;;;-6.62;100.0
64025;BME280;50266;57.446;26.936;2023-02-27T00:34:58;99647.25;;;-6.62;100.0
64025;BME280;50266;57.446;26.936;2023-02-27T00:35:58;99653.33;;;-6.64;100.0
64025;BME280;50266;57.446;26.936;2023-02-27T00:36:58;99654.86;;;-6.65;100.0
64025;BME280;50266;57.446;26.936;2023-02-27T00:37:58;99655.93;;;-6.61;100.0
64025;BME280;50266;57.446;26.936;2023-02-27T00:38:58;99654.35;;;-6.63;100.0
64025;BME280;50266;57.446;26.936;2023-02-27T00:39:58;99650.96;;;-6.63;100.0
64025;BME280;50266;57.446;26.936;2023-02-27T00:40:58;99653.77;;;-6.64;100.0
64025;BME280;50266;57.446;26.936;2023-02-27T00:41:58;99654.46;;;-6.63;100.0
64025;BME280;50266;57.446;26.936;2023-02-27T00:42:58;99657.65;;;-6.67;100.0
64025;BME280;50266;57.446;26.936;2023-02-27T00:43:58;99657.29;;;-6.64;100.0
64025;BME280;50266;57.446;26.936;2023-02-27T00:44:58;99659.59;;;-6.66;100.0
64025;BME280;50266;57.446;26.936;2023-02-27T00:45:58;99658.4;;;-6.63;100.0
64025;BME280;50266;57.446;26.936;2023-02-27T00:46:58;99664.5;;;-6.65;100.0
64025;BME280;50266;57.446;26.936;2023-02-27T00:47:58;99662.21;;;-6.64;100.0
64025;BME280;50266;57.446;26.936;2023-02-27T00:48:58;99662.72;;;-6.66;100.0
64025;BME280;50266;57.446;26.936;2023-02-27T00:49:58;99666.36;;;-6.64;100.0
64025;BME280;50266;57.446;26.936;2023-02-27T00:50:58;99663.73;;;-6.66;100.0
64025;BME280;50266;57.446;26.936;2023-02-27T00:51:58;99665.98;;;-6.68;100.0
64025;BME280;50266;57.446;26.936;2023-02-27T00:52:58;99667.17;;;-6.67;100.0
64025;BME280;50266;57.446;26.936;2023-02-27T00:53:58;99666.36;;;-6.69;100.0
64025;BME280;50266;57.446;26.936;2023-02-27T00:54:58;99667.64;;;-6.71;100.0
64025;BME280;50266;57.446;26.936;2023-02-27T00:55:58;99669.42;;;-6.7;100.0
64025;BME280;50266;57.446;26.936;2023-02-27T00:56:58;99668.83;;;-6.71;100.0
64025;BME280;50266;57.446;26.936;2023-02-27T00:57:58;99668.08;;;-6.69;100.0
64025;BME280;50266;57.446;26.936;2023-02-27T00:58:58;99666.86;;;-6.67;100.0
64025;BME280;50266;57.446;26.936;2023-02-27T00:59:58;99666.55;;;-6.73;100.0
64025;BME280;50266;57.446;26.936;2023-02-27T01:00:58;99666.39;;;-6.72;100.0
64025;BME280;50266;57.446;26.936;2023-02-27T01:01:58;99667.98;;;-6.68;100.0
64025;BME280;50266;57.446;26.936;2023-02-27T01:02:58;99669.95;;;-6.72;100.0
64025;BME280;50266;57.446;26.936;2023-02-27T01:03:58;99673.11;;;-6.73;100.0
64025;BME280;50266;57.446;26.936;2023-02-27T01:04:58;99671.3;;;-6.72;100.0
64025;BME280;50266;57.446;26.936;2023-02-27T01:05:58;99667.73;;;-6.72;100.0
64025;BME280;50266;57.446;26.936;2023-02-27T01:06:58;99672.79;;;-6.73;100.0
64025;BME280;50266;57.446;26.936;2023-02-27T01:07:58;99674.12;;;-6.75;100.0
64025;BME280;50266;57.446;26.936;2023-02-27T01:08:58;99675.36;;;-6.77;100.0
64025;BME280;50266;57.446;26.936;2023-02-27T01:09:58;99678.75;;;-6.77;100.0
64025;BME280;50266;57.446;26.936;2023-02-27T01:10:58;99674.55;;;-6.76;100.0
64025;BME280;50266;57.446;26.936;2023-02-27T01:11:58;99678.52;;;-6.79;100.0
64025;BME280;50266;57.446;26.936;2023-02-27T01:12:58;99676.43;;;-6.76;100.0
64025;BME280;50266;57.446;26.936;2023-02-27T01:13:58;99676.91;;;-6.76;100.0
64025;BME280;50266;57.446;26.936;2023-02-27T01:14:58;99678.59;;;-6.74;100.0
64025;BME280;50266;57.446;26.936;2023-02-27T01:15:58;99684.41;;;-6.76;100.0
64025;BME280;50266;57.446;26.936;2023-02-27T01:16:58;99689.78;;;-6.77;100.0
64025;BME280;50266;57.446;26.936;2023-02-27T01:17:58;99689.18;;;-6.78;100.0
64025;BME280;50266;57.446;26.936;2023-02-27T01:18:58;99692.27;;;-6.76;100.0
64025;BME280;50266;57.446;26.936;2023-02-27T01:19:58;99695.38;;;-6.78;100.0
64025;BME280;50266;57.446;26.936;2023-02-27T01:20:58;99693.64;;;-6.79;100.0
64025;BME280;50266;57.446;26.936;2023-02-27T01:21:58;99698.42;;;-6.8;100.0
64025;BME280;50266;57.446;26.936;2023-02-27T01:22:58;99699.62;;;-6.78;100.0
64025;BME280;50266;57.446;26.936;2023-02-27T01:23:58;99704.28;;;-6.81;100.0
64025;BME280;50266;57.446;26.936;2023-02-27T01:24:58;99700.84;;;-6.81;100.0
64025;BME280;50266;57.446;26.936;2023-02-27T01:25:58;99703.84;;;-6.83;100.0
64025;BME280;50266;57.446;26.936;2023-02-27T01:26:58;99708.83;;;-6.85;100.0
64025;BME280;50266;57.446;26.936;2023-02-27T01:27:58;99714.08;;;-6.86;100.0
64025;BME280;50266;57.446;26.936;2023-02-27T01:28:58;99714.98;;;-6.86;100.0
64025;BME280;50266;57.446;26.936;2023-02-27T01:29:58;99713.52;;;-6.85;100.0
64025;BME280;50266;57.446;26.936;2023-02-27T01:30:58;99721.35;;;-6.85;100.0
64025;BME280;50266;57.446;26.936;2023-02-27T01:31:58;99722.8;;;-6.8;100.0
64025;BME280;50266;57.446;26.936;2023-02-27T01:32:58;99726.5;;;-6.83;100.0
64025;BME280;50266;57.446;26.936;2023-02-27T01:33:59;99726.41;;;-6.85;100.0
64025;BME280;50266;57.446;26.936;2023-02-27T01:34:58;99724.08;;;-6.83;100.0
64025;BME280;50266;57.446;26.936;2023-02-27T01:35:58;99727.22;;;-6.85;100.0
64025;BME280;50266;57.446;26.936;2023-02-27T01:36:58;99731.34;;;-6.88;100.0
64025;BME280;50266;57.446;26.936;2023-02-27T01:37:59;99732.08;;;-6.9;100.0
64025;BME280;50266;57.446;26.936;2023-02-27T01:38:58;99732.19;;;-6.89;100.0
64025;BME280;50266;57.446;26.936;2023-02-27T01:39:58;99732.7;;;-6.92;100.0
64025;BME280;50266;57.446;26.936;2023-02-27T01:40:58;99734.23;;;-6.95;100.0
64025;BME280;50266;57.446;26.936;2023-02-27T01:41:59;99735.53;;;-6.94;100.0
64025;BME280;50266;57.446;26.936;2023-02-27T01:42:58;99740.48;;;-6.95;100.0
64025;BME280;50266;57.446;26.936;2023-02-27T01:44:00;99742.25;;;-6.96;100.0
64025;BME280;50266;57.446;26.936;2023-02-27T01:45:09;99741.84;;;-6.94;100.0
64025;BME280;50266;57.446;26.936;2023-02-27T01:46:01;99737.15;;;-6.94;100.0
64025;BME280;50266;57.446;26.936;2023-02-27T01:47:01;99749.16;;;-6.93;100.0
64025;BME280;50266;57.446;26.936;2023-02-27T01:48:15;99751.47;;;-6.88;100.0
64025;BME280;50266;57.446;26.936;2023-02-27T01:49:08;99748.5;;;-6.89;100.0
64025;BME280;50266;57.446;26.936;2023-02-27T01:50:06;99755.12;;;-6.88;100.0
64025;BME280;50266;57.446;26.936;2023-02-27T01:51:06;99755.61;;;-6.95;100.0
64025;BME280;50266;57.446;26.936;2023-02-27T01:52:06;99760.7;;;-6.92;100.0
64025;BME280;50266;57.446;26.936;2023-02-27T01:53:05;99759.73;;;-6.92;100.0
64025;BME280;50266;57.446;26.936;2023-02-27T01:54:06;99753.79;;;-6.94;100.0
64025;BME280;50266;57.446;26.936;2023-02-27T01:55:06;99755.89;;;-6.94;100.0
64025;BME280;50266;57.446;26.936;2023-02-27T01:56:09;99765.8;;;-6.92;100.0
64025;BME280;50266;57.446;26.936;2023-02-27T01:57:07;99763.66;;;-6.91;100.0
64025;BME280;50266;57.446;26.936;2023-02-27T01:58:07;99760.41;;;-6.94;100.0
64025;BME280;50266;57.446;26.936;2023-02-27T01:59:07;99761.11;;;-6.94;100.0
64025;BME280;50266;57.446;26.936;2023-02-27T02:00:07;99765.31;;;-6.93;100.0
64025;BME280;50266;57.446;26.936;2023-02-27T02:01:07;99767.83;;;-6.89;100.0
64025;BME280;50266;57.446;26.936;2023-02-27T02:02:08;99770.91;;;-6.93;100.0
64025;BME280;50266;57.446;26.936;2023-02-27T02:03:16;99769.64;;;-6.96;100.0
64025;BME280;50266;57.446;26.936;2023-02-27T02:04:20;99775.17;;;-6.97;100.0
64025;BME280;50266;57.446;26.936;2023-02-27T02:05:14;99770.61;;;-6.96;100.0
64025;BME280;50266;57.446;26.936;2023-02-27T02:06:14;99777.59;;;-6.91;100.0
64025;BME280;50266;57.446;26.936;2023-02-27T02:07:14;99781.45;;;-6.99;100.0
64025;BME280;50266;57.446;26.936;2023-02-27T02:08:15;99779.94;;;-7.01;100.0
64025;BME280;50266;57.446;26.936;2023-02-27T02:09:15;99777.5;;;-7.01;100.0
64025;BME280;50266;57.446;26.936;2023-02-27T02:10:14;99777.17;;;-7.02;100.0
64025;BME280;50266;57.446;26.936;2023-02-27T02:11:14;99778.29;;;-7.04;100.0
64025;BME280;50266;57.446;26.936;2023-02-27T02:12:14;99773.01;;;-7.05;100.0
64025;BME280;50266;57.446;26.936;2023-02-27T02:13:14;99772.53;;;-7.03;100.0
64025;BME280;50266;57.446;26.936;2023-02-27T02:14:14;99769.03;;;-7.08;100.0
64025;BME280;50266;57.446;26.936;2023-02-27T02:15:14;99768.91;;;-7.05;100.0
64025;BME280;50266;57.446;26.936;2023-02-27T02:18:27;99763.81;;;-7.08;100.0
64025;BME280;50266;57.446;26.936;2023-02-27T02:19:37;99765.2;;;-7.08;100.0
64025;BME280;50266;57.446;26.936;2023-02-27T02:25:43;99792.97;;;-7.08;100.0
64025;BME280;50266;57.446;26.936;2023-02-27T02:26:49;99796.02;;;-7.11;100.0
64025;BME280;50266;57.446;26.936;2023-02-27T02:27:48;99799.28;;;-7.12;100.0
64025;BME280;50266;57.446;26.936;2023-02-27T02:29:57;99802.0;;;-7.15;100.0
64025;BME280;50266;57.446;26.936;2023-02-27T02:32:05;99803.99;;;-7.14;100.0
64025;BME280;50266;57.446;26.936;2023-02-27T02:33:18;99806.72;;;-7.16;100.0
64025;BME280;50266;57.446;26.936;2023-02-27T02:37:32;99815.92;;;-7.2;100.0
64025;BME280;50266;57.446;26.936;2023-02-27T02:38:22;99812.3;;;-7.22;100.0
64025;BME280;50266;57.446;26.936;2023-02-27T02:39:39;99815.63;;;-7.22;100.0
64025;BME280;50266;57.446;26.936;2023-02-27T02:42:38;99817.16;;;-7.29;100.0
64025;BME280;50266;57.446;26.936;2023-02-27T02:46:43;99825.78;;;-7.24;100.0
64025;BME280;50266;57.446;26.936;2023-02-27T02:47:48;99823.58;;;-7.24;100.0
64025;BME280;50266;57.446;26.936;2023-02-27T02:48:44;99822.46;;;-7.22;100.0
64025;BME280;50266;57.446;26.936;2023-02-27T02:51:50;99829.14;;;-7.3;100.0
64025;BME280;50266;57.446;26.936;2023-02-27T02:53:08;99833.35;;;-7.28;100.0
64025;BME280;50266;57.446;26.936;2023-02-27T02:54:02;99831.57;;;-7.29;100.0
64025;BME280;50266;57.446;26.936;2023-02-27T02:56:03;99832.77;;;-7.28;100.0
64025;BME280;50266;57.446;26.936;2023-02-27T02:57:02;99826.56;;;-7.29;100.0
64025;BME280;50266;57.446;26.936;2023-02-27T02:58:05;99831.73;;;-7.26;100.0
64025;BME280;50266;57.446;26.936;2023-02-27T02:59:17;99831.28;;;-7.3;100.0
64025;BME280;50266;57.446;26.936;2023-02-27T03:00:17;99830.38;;;-7.3;100.0
64025;BME280;50266;57.446;26.936;2023-02-27T03:01:15;99831.91;;;-7.32;100.0
64025;BME280;50266;57.446;26.936;2023-02-27T03:02:13;99835.71;;;-7.34;100.0
64025;BME280;50266;57.446;26.936;2023-02-27T03:03:15;99831.66;;;-7.3;100.0
64025;BME280;50266;57.446;26.936;2023-02-27T03:04:24;99839.0;;;-7.38;100.0
64025;BME280;50266;57.446;26.936;2023-02-27T03:05:20;99846.45;;;-7.39;100.0
64025;BME280;50266;57.446;26.936;2023-02-27T03:06:23;99840.0;;;-7.4;100.0
64025;BME280;50266;57.446;26.936;2023-02-27T03:07:32;99843.8;;;-7.4;100.0
64025;BME280;50266;57.446;26.936;2023-02-27T03:08:27;99848.72;;;-7.43;100.0
64025;BME280;50266;57.446;26.936;2023-02-27T03:09:31;99849.14;;;-7.43;100.0
64025;BME280;50266;57.446;26.936;2023-02-27T03:10:33;99844.3;;;-7.43;100.0
64025;BME280;50266;57.446;26.936;2023-02-27T03:11:32;99848.44;;;-7.44;100.0
64025;BME280;50266;57.446;26.936;2023-02-27T03:12:32;99850.95;;;-7.41;100.0
64025;BME280;50266;57.446;26.936;2023-02-27T03:13:33;99850.08;;;-7.42;100.0
64025;BME280;50266;57.446;26.936;2023-02-27T03:14:42;99850.19;;;-7.42;100.0
64025;BME280;50266;57.446;26.936;2023-02-27T03:16:38;99853.89;;;-7.46;100.0
64025;BME280;50266;57.446;26.936;2023-02-27T03:18:46;99860.5;;;-7.5;100.0
64025;BME280;50266;57.446;26.936;2023-02-27T03:19:42;99862.81;;;-7.5;100.0
64025;BME280;50266;57.446;26.936;2023-02-27T03:20:42;99866.8;;;-7.49;100.0
64025;BME280;50266;57.446;26.936;2023-02-27T03:21:45;99863.0;;;-7.48;100.0
64025;BME280;50266;57.446;26.936;2023-02-27T03:22:44;99870.5;;;-7.5;100.0
64025;BME280;50266;57.446;26.936;2023-02-27T03:23:43;99870.99;;;-7.53;100.0
64025;BME280;50266;57.446;26.936;2023-02-27T03:24:50;99871.93;;;-7.56;100.0
64025;BME280;50266;57.446;26.936;2023-02-27T03:25:42;99876.42;;;-7.53;100.0
64025;BME280;50266;57.446;26.936;2023-02-27T03:26:42;99870.38;;;-7.51;100.0
64025;BME280;50266;57.446;26.936;2023-02-27T03:27:44;99870.27;;;-7.51;100.0
64025;BME280;50266;57.446;26.936;2023-02-27T03:29:02;99872.98;;;-7.53;100.0
64025;BME280;50266;57.446;26.936;2023-02-27T03:29:50;99874.72;;;-7.52;100.0
64025;BME280;50266;57.446;26.936;2023-02-27T03:30:50;99869.75;;;-7.54;100.0
64025;BME280;50266;57.446;26.936;2023-02-27T03:31:50;99873.17;;;-7.55;100.0
64025;BME280;50266;57.446;26.936;2023-02-27T03:32:54;99877.91;;;-7.55;100.0
64025;BME280;50266;57.446;26.936;2023-02-27T03:33:53;99882.41;;;-7.6;100.0
64025;BME280;50266;57.446;26.936;2023-02-27T03:34:51;99883.88;;;-7.59;100.0
64025;BME280;50266;57.446;26.936;2023-02-27T03:36:03;99878.42;;;-7.61;100.0
64025;BME280;50266;57.446;26.936;2023-02-27T03:36:58;99879.44;;;-7.61;100.0
64025;BME280;50266;57.446;26.936;2023-02-27T03:38:00;99883.23;;;-7.66;100.0
64025;BME280;50266;57.446;26.936;2023-02-27T03:39:03;99880.71;;;-7.69;100.0
64025;BME280;50266;57.446;26.936;2023-02-27T03:40:09;99888.66;;;-7.67;100.0
64025;BME280;50266;57.446;26.936;2023-02-27T03:41:14;99891.3;;;-7.69;100.0
64025;BME280;50266;57.446;26.936;2023-02-27T03:43:16;99892.64;;;-7.73;100.0
64025;BME280;50266;57.446;26.936;2023-02-27T03:44:12;99898.34;;;-7.72;100.0
64025;BME280;50266;57.446;26.936;2023-02-27T03:46:20;99897.5;;;-7.75;100.0
64025;BME280;50266;57.446;26.936;2023-02-27T03:47:18;99899.91;;;-7.76;100.0
64025;BME280;50266;57.446;26.936;2023-02-27T03:48:17;99894.28;;;-7.79;100.0
64025;BME280;50266;57.446;26.936;2023-02-27T03:49:18;99893.56;;;-7.8;100.0
64025;BME280;50266;57.446;26.936;2023-02-27T03:50:18;99898.02;;;-7.8;100.0
64025;BME280;50266;57.446;26.936;2023-02-27T03:51:21;99896.59;;;-7.82;100.0
64025;BME280;50266;57.446;26.936;2023-02-27T03:52:19;99898.72;;;-7.8;100.0
64025;BME280;50266;57.446;26.936;2023-02-27T03:53:21;99900.86;;;-7.81;100.0
64025;BME280;50266;57.446;26.936;2023-02-27T03:54:21;99906.59;;;-7.78;100.0
64025;BME280;50266;57.446;26.936;2023-02-27T03:55:22;99902.31;;;-7.8;100.0
64025;BME280;50266;57.446;26.936;2023-02-27T03:56:23;99907.34;;;-7.85;100.0
64025;BME280;50266;57.446;26.936;2023-02-27T03:57:21;99910.82;;;-7.87;100.0
64025;BME280;50266;57.446;26.936;2023-02-27T03:58:21;99909.3;;;-7.9;100.0
64025;BME280;50266;57.446;26.936;2023-02-27T03:59:22;99919.84;;;-7.9;100.0
64025;BME280;50266;57.446;26.936;2023-02-27T04:00:22;99918.06;;;-7.93;100.0
64025;BME280;50266;57.446;26.936;2023-02-27T04:01:21;99918.81;;;-7.93;100.0
64025;BME280;50266;57.446;26.936;2023-02-27T04:02:21;99919.55;;;-7.91;100.0
64025;BME280;50266;57.446;26.936;2023-02-27T04:03:21;99923.63;;;-7.91;100.0
64025;BME280;50266;57.446;26.936;2023-02-27T04:04:21;99921.09;;;-7.92;100.0
64025;BME280;50266;57.446;26.936;2023-02-27T04:05:21;99923.14;;;-7.92;100.0
64025;BME280;50266;57.446;26.936;2023-02-27T04:06:21;99926.51;;;-7.89;100.0
64025;BME280;50266;57.446;26.936;2023-02-27T04:07:36;99927.64;;;-7.92;100.0
64025;BME280;50266;57.446;26.936;2023-02-27T04:08:35;99920.12;;;-7.95;100.0
64025;BME280;50266;57.446;26.936;2023-02-27T04:14:55;99950.78;;;-8.04;100.0
64025;BME280;50266;57.446;26.936;2023-02-27T04:17:56;99960.16;;;-8.02;100.0
64025;BME280;50266;57.446;26.936;2023-02-27T04:20:17;99963.59;;;-8.08;100.0
64025;BME280;50266;57.446;26.936;2023-02-27T04:22:13;99967.26;;;-8.05;100.0
64025;BME280;50266;57.446;26.936;2023-02-27T04:26:19;99963.53;;;-8.06;100.0
64025;BME280;50266;57.446;26.936;2023-02-27T04:27:32;99965.53;;;-8.05;100.0
64025;BME280;50266;57.446;26.936;2023-02-27T04:28:30;99971.3;;;-8.07;100.0
64025;BME280;50266;57.446;26.936;2023-02-27T04:29:23;99972.39;;;-8.06;100.0
64025;BME280;50266;57.446;26.936;2023-02-27T04:30:38;99978.77;;;-8.04;100.0
64025;BME280;50266;57.446;26.936;2023-02-27T04:31:29;99977.28;;;-8.09;100.0
64025;BME280;50266;57.446;26.936;2023-02-27T04:32:38;99976.43;;;-8.09;100.0
64025;BME280;50266;57.446;26.936;2023-02-27T04:34:47;99980.85;;;-8.1;100.0
64025;BME280;50266;57.446;26.936;2023-02-27T04:35:46;99979.16;;;-8.14;100.0
64025;BME280;50266;57.446;26.936;2023-02-27T04:36:43;99985.98;;;-8.17;100.0
64025;BME280;50266;57.446;26.936;2023-02-27T04:37:43;99981.08;;;-8.15;100.0
64025;BME280;50266;57.446;26.936;2023-02-27T04:38:44;99981.4;;;-8.22;100.0
64025;BME280;50266;57.446;26.936;2023-02-27T04:39:50;99984.09;;;-8.24;100.0
64025;BME280;50266;57.446;26.936;2023-02-27T04:40:49;99988.52;;;-8.26;100.0
64025;BME280;50266;57.446;26.936;2023-02-27T04:41:49;99989.18;;;-8.25;100.0
64025;BME280;50266;57.446;26.936;2023-02-27T04:42:49;99991.17;;;-8.28;100.0
64025;BME280;50266;57.446;26.936;2023-02-27T04:43:48;99990.62;;;-8.28;100.0
64025;BME280;50266;57.446;26.936;2023-02-27T04:44:48;99988.06;;;-8.28;100.0
64025;BME280;50266;57.446;26.936;2023-02-27T04:45:48;99988.66;;;-8.27;100.0
64025;BME280;50266;57.446;26.936;2023-02-27T04:46:48;99989.35;;;-8.24;100.0
64025;BME280;50266;57.446;26.936;2023-02-27T04:47:50;99993.25;;;-8.25;100.0
64025;BME280;50266;57.446;26.936;2023-02-27T04:48:53;99985.52;;;-8.25;100.0
64025;BME280;50266;57.446;26.936;2023-02-27T04:49:54;99988.74;;;-8.25;100.0
64025;BME280;50266;57.446;26.936;2023-02-27T04:51:59;99992.28;;;-8.25;100.0
64025;BME280;50266;57.446;26.936;2023-02-27T04:52:57;99989.95;;;-8.27;100.0
64025;BME280;50266;57.446;26.936;2023-02-27T04:54:00;99990.56;;;-8.29;100.0
64025;BME280;50266;57.446;26.936;2023-02-27T04:55:02;99999.89;;;-8.3;100.0
64025;BME280;50266;57.446;26.936;2023-02-27T04:56:04;99996.69;;;-8.26;100.0
64025;BME280;50266;57.446;26.936;2023-02-27T04:57:05;99999.91;;;-8.29;100.0
64025;BME280;50266;57.446;26.936;2023-02-27T04:58:08;100000.46;;;-8.31;100.0
64025;BME280;50266;57.446;26.936;2023-02-27T04:59:10;100012.29;;;-8.27;100.0
64025;BME280;50266;57.446;26.936;2023-02-27T05:00:09;100014.52;;;-8.32;100.0
64025;BME280;50266;57.446;26.936;2023-02-27T05:01:10;100022.61;;;-8.34;100.0
64025;BME280;50266;57.446;26.936;2023-02-27T05:02:13;100021.88;;;-8.35;100.0
64025;BME280;50266;57.446;26.936;2023-02-27T05:03:13;100014.95;;;-8.35;100.0
64025;BME280;50266;57.446;26.936;2023-02-27T05:04:12;100018.95;;;-8.4;100.0
64025;BME280;50266;57.446;26.936;2023-02-27T05:05:15;100020.55;;;-8.43;100.0
64025;BME280;50266;57.446;26.936;2023-02-27T05:06:14;100014.75;;;-8.43;100.0
64025;BME280;50266;57.446;26.936;2023-02-27T05:07:14;100024.23;;;-8.41;100.0
64025;BME280;50266;57.446;26.936;2023-02-27T05:10:27;100027.09;;;-8.48;100.0
64025;BME280;50266;57.446;26.936;2023-02-27T05:11:30;100027.83;;;-8.5;100.0
64025;BME280;50266;57.446;26.936;2023-02-27T05:12:21;100025.44;;;-8.48;100.0
64025;BME280;50266;57.446;26.936;2023-02-27T05:13:21;100029.45;;;-8.49;100.0
64025;BME280;50266;57.446;26.936;2023-02-27T05:14:29;100030.17;;;-8.48;100.0
64025;BME280;50266;57.446;26.936;2023-02-27T05:15:32;100033.94;;;-8.47;100.0
64025;BME280;50266;57.446;26.936;2023-02-27T05:16:40;100036.61;;;-8.48;100.0
64025;BME280;50266;57.446;26.936;2023-02-27T05:17:30;100040.2;;;-8.48;100.0
64025;BME280;50266;57.446;26.936;2023-02-27T05:18:28;100042.61;;;-8.46;100.0
64025;BME280;50266;57.446;26.936;2023-02-27T05:19:29;100044.0;;;-8.46;100.0
64025;BME280;50266;57.446;26.936;2023-02-27T05:20:31;100046.3;;;-8.47;100.0
64025;BME280;50266;57.446;26.936;2023-02-27T05:23:47;100045.44;;;-8.47;100.0
64025;BME280;50266;57.446;26.936;2023-02-27T05:28:00;100047.91;;;-8.44;100.0
64025;BME280;50266;57.446;26.936;2023-02-27T05:28:57;100048.12;;;-8.41;100.0
64025;BME280;50266;57.446;26.936;2023-02-27T05:30:02;100048.25;;;-8.35;100.0
64025;BME280;50266;57.446;26.936;2023-02-27T05:31:04;100044.84;;;-8.34;100.0
64025;BME280;50266;57.446;26.936;2023-02-27T05:33:12;100046.73;;;-8.44;100.0
64025;BME280;50266;57.446;26.936;2023-02-27T05:34:12;100047.66;;;-8.49;100.0
64025;BME280;50266;57.446;26.936;2023-02-27T05:35:30;100047.25;;;-8.52;100.0
64025;BME280;50266;57.446;26.936;2023-02-27T05:36:14;100048.73;;;-8.49;100.0
64025;BME280;50266;57.446;26.936;2023-02-27T05:37:14;100050.81;;;-8.5;100.0
64025;BME280;50266;57.446;26.936;2023-02-27T05:38:21;100055.94;;;-8.53;100.0
64025;BME280;50266;57.446;26.936;2023-02-27T05:39:15;100055.12;;;-8.48;100.0
64025;BME280;50266;57.446;26.936;2023-02-27T05:40:19;100056.11;;;-8.48;100.0
64025;BME280;50266;57.446;26.936;2023-02-27T05:41:19;100057.8;;;-8.49;100.0
64025;BME280;50266;57.446;26.936;2023-02-27T05:42:19;100058.45;;;-8.53;100.0
64025;BME280;50266;57.446;26.936;2023-02-27T05:43:25;100061.44;;;-8.47;100.0
64025;BME280;50266;57.446;26.936;2023-02-27T05:44:22;100060.42;;;-8.47;100.0
64025;BME280;50266;57.446;26.936;2023-02-27T05:45:21;100067.06;;;-8.52;100.0
64025;BME280;50266;57.446;26.936;2023-02-27T05:46:24;100066.42;;;-8.52;100.0
64025;BME280;50266;57.446;26.936;2023-02-27T05:47:22;100070.46;;;-8.54;100.0
64025;BME280;50266;57.446;26.936;2023-02-27T05:48:23;100071.89;;;-8.48;100.0
64025;BME280;50266;57.446;26.936;2023-02-27T05:49:23;100074.0;;;-8.44;100.0
64025;BME280;50266;57.446;26.936;2023-02-27T05:50:24;100071.18;;;-8.46;100.0
64025;BME280;50266;57.446;26.936;2023-02-27T05:51:22;100080.16;;;-8.42;100.0
64025;BME280;50266;57.446;26.936;2023-02-27T05:52:23;100075.2;;;-8.43;100.0
64025;BME280;50266;57.446;26.936;2023-02-27T05:53:23;100081.1;;;-8.46;100.0
64025;BME280;50266;57.446;26.936;2023-02-27T05:54:30;100082.16;;;-8.44;100.0
64025;BME280;50266;57.446;26.936;2023-02-27T05:55:28;100079.72;;;-8.46;100.0
64025;BME280;50266;57.446;26.936;2023-02-27T05:56:26;100084.81;;;-8.49;100.0
64025;BME280;50266;57.446;26.936;2023-02-27T05:58:35;100085.14;;;-8.45;100.0
64025;BME280;50266;57.446;26.936;2023-02-27T05:59:37;100085.8;;;-8.47;100.0
64025;BME280;50266;57.446;26.936;2023-02-27T06:00:50;100086.58;;;-8.46;100.0
64025;BME280;50266;57.446;26.936;2023-02-27T06:01:39;100089.48;;;-8.49;100.0
64025;BME280;50266;57.446;26.936;2023-02-27T06:02:39;100088.92;;;-8.54;100.0
64025;BME280;50266;57.446;26.936;2023-02-27T06:03:39;100091.31;;;-8.52;100.0
64025;BME280;50266;57.446;26.936;2023-02-27T06:04:39;100094.61;;;-8.52;100.0
64025;BME280;50266;57.446;26.936;2023-02-27T06:05:40;100090.59;;;-8.47;100.0
64025;BME280;50266;57.446;26.936;2023-02-27T06:06:39;100099.05;;;-8.51;100.0
64025;BME280;50266;57.446;26.936;2023-02-27T06:07:39;100097.04;;;-8.56;100.0